Annandale, New Jersey
Current Conditions -  °F | °C
As of 3:53 PM on Friday 31 Oct 2014 (Local Time) from KSMQ Reporting Station
Overcast Overcast  
Wind Chill: 52°   Ceiling: 4800
Heat Index: 52°   Visibility: 10mi
Dew Point: 34°   Wind: 5mph
Humidity: 50%   Direction: 40°NE
Pressure: 29.89"   Gusts: NA
Location:  40.65°N, 74.89°W
Report Text: KSMQ 311953Z AUTO 04004KT 10SM OVC048 11/01 A2989 RMK AO2 SLP122 T01110011
Loading
Personal Weather Stations






























Interactive Weather Map New forecast layout! Learn more

10-Day Weather Forecast

Advertisements
Track Severe Weather on mobile